Time;durP1;ratioP1;P1;durP2;ratioP2;P2;SDS_P1;SDS_P2;PMS_P1;PMS_P2;Temp;Humidity;BMP_temperature;BMP_pressure;BME280_temperature;BME280_humidity;BME280_pressure;Samples;Min_cycle;Max_cycle;Signal;HPM_P1;HPM_P2
2021/10/20 00:02:18;;;;;;;5.28;3.67;;;16.30;99.80;;;;;;4926632;29;20051;-64
2021/10/20 00:04:43;;;;;;;5.28;4.10;;;16.30;99.70;;;;;;4917935;29;20108;-64
2021/10/20 00:07:09;;;;;;;5.55;4.05;;;16.30;99.80;;;;;;4925902;29;20111;-64
2021/10/20 00:09:34;;;;;;;8.07;4.47;;;16.30;99.80;;;;;;4929722;29;20042;-64
2021/10/20 00:12:01;;;;;;;5.55;4.15;;;16.20;99.80;;;;;;4918107;29;20543;-64
2021/10/20 00:14:27;;;;;;;5.53;4.28;;;16.30;99.90;;;;;;4917540;29;20098;-63
2021/10/20 00:16:53;;;;;;;7.95;4.72;;;16.20;99.90;;;;;;4923388;29;20110;-64
2021/10/20 00:19:18;;;;;;;5.63;4.18;;;16.20;99.90;;;;;;4936519;29;20123;-64
2021/10/20 00:21:44;;;;;;;6.65;4.70;;;16.20;99.90;;;;;;4935282;29;20016;-64
2021/10/20 00:24:10;;;;;;;6.57;4.53;;;16.20;99.90;;;;;;4936637;29;20115;-63
2021/10/20 00:26:36;;;;;;;5.95;4.30;;;16.10;99.90;;;;;;4934760;29;20054;-63
2021/10/20 00:29:02;;;;;;;9.05;4.88;;;16.10;99.90;;;;;;4919494;29;20027;-64
2021/10/20 00:31:27;;;;;;;6.25;4.78;;;16.10;99.90;;;;;;4926089;29;20572;-64
2021/10/20 00:33:53;;;;;;;5.88;4.40;;;16.10;99.90;;;;;;4917646;29;20031;-64
2021/10/20 00:36:18;;;;;;;5.35;4.18;;;16.10;99.90;;;;;;4918430;29;20409;-64
2021/10/20 00:38:44;;;;;;;5.03;3.92;;;16.00;99.90;;;;;;4923329;29;20028;-64
2021/10/20 00:41:10;;;;;;;5.75;4.20;;;16.10;99.90;;;;;;4917395;29;20024;-65
2021/10/20 00:43:35;;;;;;;5.32;4.10;;;16.00;99.90;;;;;;4936277;29;20082;-64
2021/10/20 00:46:01;;;;;;;5.53;4.20;;;16.00;99.90;;;;;;4918303;29;20035;-64
2021/10/20 00:48:26;;;;;;;7.00;5.13;;;16.00;99.90;;;;;;4917972;29;20043;-64
2021/10/20 00:50:52;;;;;;;6.88;4.47;;;16.00;99.90;;;;;;4917447;29;20032;-64
2021/10/20 00:53:18;;;;;;;7.05;4.57;;;15.90;99.90;;;;;;4933763;29;20028;-64
2021/10/20 00:55:44;;;;;;;6.38;4.75;;;15.90;99.90;;;;;;4935877;29;20079;-64
2021/10/20 00:58:10;;;;;;;7.63;5.25;;;15.90;99.90;;;;;;4917173;29;20035;-64
2021/10/20 01:00:36;;;;;;;7.32;5.75;;;15.90;99.90;;;;;;4935542;29;20040;-64
2021/10/20 01:03:01;;;;;;;9.05;5.55;;;15.90;99.90;;;;;;4903207;29;20044;-64
2021/10/20 01:05:27;;;;;;;11.18;6.43;;;15.90;99.90;;;;;;4902827;29;20057;-64
2021/10/20 01:07:52;;;;;;;8.32;6.57;;;15.90;99.90;;;;;;4923245;29;20032;-64
2021/10/20 01:10:18;;;;;;;7.60;6.13;;;15.90;99.90;;;;;;4916724;29;20016;-64
2021/10/20 01:12:45;;;;;;;10.27;6.22;;;15.90;99.90;;;;;;4916670;29;20028;-64
2021/10/20 01:15:19;;;;;;;10.18;7.10;;;15.80;99.90;;;;;;4916352;29;20046;-64
2021/10/20 01:17:46;;;;;;;;;;;15.80;99.90;;;;;;4917344;29;20438;-64
2021/10/20 01:20:12;;;;;;;9.93;6.97;;;15.80;99.90;;;;;;4916838;29;19919;-64
2021/10/20 01:22:38;;;;;;;11.13;8.05;;;15.80;99.90;;;;;;4928833;29;20039;-64
2021/10/20 01:25:04;;;;;;;12.23;8.10;;;15.80;99.90;;;;;;4935530;29;20027;-64
2021/10/20 01:27:31;;;;;;;10.35;7.95;;;15.80;99.90;;;;;;4923387;29;20028;-64
2021/10/20 01:29:58;;;;;;;14.73;8.45;;;15.70;99.90;;;;;;4916813;29;20048;-64
2021/10/20 01:32:23;;;;;;;11.00;8.15;;;15.80;99.90;;;;;;4916400;29;20050;-64
2021/10/20 01:34:49;;;;;;;13.05;9.10;;;15.70;99.90;;;;;;4916441;29;20095;-64
2021/10/20 01:37:15;;;;;;;10.95;8.52;;;15.70;99.90;;;;;;4922800;29;20030;-64
2021/10/20 01:39:40;;;;;;;12.38;8.73;;;15.70;99.90;;;;;;4927255;29;20051;-64
2021/10/20 01:42:07;;;;;;;11.73;8.57;;;15.70;99.90;;;;;;4916445;29;20055;-64
2021/10/20 01:44:32;;;;;;;11.68;7.95;;;15.70;99.90;;;;;;4916324;29;20036;-64
2021/10/20 01:46:58;;;;;;;13.30;9.02;;;15.70;99.90;;;;;;4899407;29;20043;-64
2021/10/20 01:49:24;;;;;;;11.55;8.38;;;15.70;99.90;;;;;;4920925;29;20036;-64
2021/10/20 01:51:49;;;;;;;10.77;8.25;;;15.70;99.90;;;;;;4935257;29;20024;-64
2021/10/20 01:54:15;;;;;;;13.38;9.75;;;15.60;99.90;;;;;;4929873;29;20032;-64
2021/10/20 01:56:42;;;;;;;15.02;9.68;;;15.60;99.90;;;;;;4915913;29;20047;-64
2021/10/20 01:59:07;;;;;;;11.13;8.50;;;15.60;99.90;;;;;;4916719;29;20024;-63
2021/10/20 02:01:32;;;;;;;13.40;8.85;;;15.60;99.90;;;;;;4917170;29;20395;-64
2021/10/20 02:03:58;;;;;;;12.75;8.27;;;15.60;99.90;;;;;;4915816;29;20079;-64
2021/10/20 02:06:24;;;;;;;11.23;8.20;;;15.60;99.90;;;;;;4932754;29;20389;-64
2021/10/20 02:08:50;;;;;;;12.45;8.15;;;15.60;99.90;;;;;;4932993;29;20115;-64
2021/10/20 02:11:19;;;;;;;12.23;8.25;;;15.50;99.90;;;;;;4915469;29;20474;-64
2021/10/20 02:13:45;;;;;;;10.73;8.27;;;15.60;99.90;;;;;;4915620;29;20024;-64
2021/10/20 02:16:10;;;;;;;10.48;8.00;;;15.50;99.90;;;;;;4934097;29;20036;-64
2021/10/20 02:18:36;;;;;;;11.10;8.20;;;15.50;99.90;;;;;;4933655;29;20054;-64
2021/10/20 02:21:02;;;;;;;13.07;8.98;;;15.50;99.90;;;;;;4933278;29;20028;-64
2021/10/20 02:23:29;;;;;;;10.68;7.75;;;15.50;99.90;;;;;;4932441;29;20038;-64
2021/10/20 02:25:54;;;;;;;12.02;8.02;;;15.50;99.90;;;;;;4931694;29;20055;-64
2021/10/20 02:28:20;;;;;;;12.10;7.97;;;15.50;99.90;;;;;;4934506;29;20019;-64
2021/10/20 02:30:45;;;;;;;10.40;7.90;;;15.50;99.90;;;;;;4917324;29;20020;-64
2021/10/20 02:33:11;;;;;;;11.20;8.18;;;15.40;99.90;;;;;;4942351;29;20654;-64
2021/10/20 02:35:36;;;;;;;9.52;8.23;;;15.50;99.90;;;;;;4935409;28;20035;-64
2021/10/20 02:38:02;;;;;;;11.65;7.88;;;15.40;99.90;;;;;;4934588;29;20067;-64
2021/10/20 02:40:28;;;;;;;12.40;8.75;;;15.40;99.90;;;;;;4919184;29;20047;-65
2021/10/20 02:42:53;;;;;;;11.48;8.35;;;15.40;99.90;;;;;;4915520;29;20058;-64
2021/10/20 02:45:19;;;;;;;13.95;8.60;;;15.30;99.90;;;;;;4927210;29;20028;-64
2021/10/20 02:47:45;;;;;;;11.30;8.32;;;15.30;99.90;;;;;;4934366;29;20042;-64
2021/10/20 02:50:11;;;;;;;10.75;7.90;;;15.30;99.90;;;;;;4932560;29;20048;-65
2021/10/20 02:52:37;;;;;;;10.73;7.85;;;15.30;99.90;;;;;;4934137;29;20024;-64
2021/10/20 02:55:04;;;;;;;10.23;8.30;;;15.30;99.90;;;;;;4914306;29;20740;-64
2021/10/20 02:57:30;;;;;;;11.60;7.45;;;15.30;99.90;;;;;;4934102;29;20043;-64
2021/10/20 02:59:57;;;;;;;10.13;7.60;;;15.30;99.90;;;;;;4932339;29;20047;-64
2021/10/20 03:02:23;;;;;;;10.30;7.85;;;15.20;99.90;;;;;;4934266;29;20086;-64
2021/10/20 03:04:49;;;;;;;10.15;7.35;;;15.20;99.90;;;;;;4924736;29;20028;-64
2021/10/20 03:07:14;;;;;;;10.82;7.50;;;15.20;99.90;;;;;;4915228;29;20021;-64
2021/10/20 03:09:40;;;;;;;13.20;8.60;;;15.20;99.90;;;;;;4914893;29;20504;-64
2021/10/20 03:12:05;;;;;;;15.70;8.00;;;15.20;99.90;;;;;;4915432;29;20027;-65
2021/10/20 03:14:31;;;;;;;11.52;8.07;;;15.20;99.90;;;;;;4915170;29;20412;-65
2021/10/20 03:16:56;;;;;;;9.85;7.63;;;15.20;99.90;;;;;;4918558;29;20028;-65
2021/10/20 03:19:22;;;;;;;11.10;8.05;;;15.20;99.90;;;;;;4918876;29;20036;-65
2021/10/20 03:21:47;;;;;;;10.55;7.38;;;15.20;99.90;;;;;;4919095;29;20028;-64
2021/10/20 03:24:13;;;;;;;9.77;7.40;;;15.10;99.90;;;;;;4920375;29;20036;-65
2021/10/20 03:26:38;;;;;;;9.20;7.00;;;15.10;99.90;;;;;;4918430;29;20114;-65
2021/10/20 03:29:04;;;;;;;14.68;8.13;;;15.10;99.90;;;;;;4918615;29;20152;-64
2021/10/20 03:31:29;;;;;;;11.38;7.50;;;15.10;99.90;;;;;;4918249;29;20056;-64
2021/10/20 03:33:55;;;;;;;9.80;7.65;;;15.10;99.90;;;;;;4919892;29;20070;-64
2021/10/20 03:36:20;;;;;;;11.80;8.43;;;15.10;99.90;;;;;;4937406;29;20028;-64
2021/10/20 03:38:46;;;;;;;10.32;7.80;;;15.10;99.90;;;;;;4924998;29;20024;-64
2021/10/20 03:41:12;;;;;;;13.40;8.57;;;15.10;99.90;;;;;;4937462;29;20543;-64
2021/10/20 03:43:39;;;;;;;13.25;8.25;;;15.10;99.90;;;;;;4936825;29;20417;-64
2021/10/20 03:46:05;;;;;;;14.73;8.77;;;15.10;99.90;;;;;;4936761;29;20087;-64
2021/10/20 03:48:30;;;;;;;10.23;7.53;;;15.00;99.90;;;;;;4937366;29;20091;-64
2021/10/20 03:50:56;;;;;;;11.85;7.63;;;15.00;99.90;;;;;;4935626;29;20023;-64
2021/10/20 03:53:22;;;;;;;11.10;8.18;;;15.10;99.90;;;;;;4929762;29;20032;-64
2021/10/20 03:55:47;;;;;;;10.20;8.25;;;15.00;99.90;;;;;;4933780;29;20035;-64
2021/10/20 03:58:13;;;;;;;11.55;8.60;;;15.10;99.90;;;;;;4937357;29;20024;-64
2021/10/20 04:00:38;;;;;;;9.02;7.45;;;15.00;99.90;;;;;;4935436;29;20393;-64
2021/10/20 04:03:03;;;;;;;9.68;7.38;;;15.00;99.90;;;;;;4936431;29;20075;-64
2021/10/20 04:05:29;;;;;;;10.80;8.30;;;15.00;99.90;;;;;;4921470;29;20111;-64
2021/10/20 04:07:54;;;;;;;11.45;7.90;;;15.00;99.90;;;;;;4917355;29;20115;-65
2021/10/20 04:10:23;;;;;;;10.23;7.13;;;15.00;99.90;;;;;;4918584;29;20147;-64
2021/10/20 04:12:49;;;;;;;10.00;7.47;;;15.00;99.90;;;;;;4918058;29;20032;-63
2021/10/20 04:15:16;;;;;;;10.75;7.70;;;15.00;99.90;;;;;;4918892;29;20118;-65
2021/10/20 04:17:42;;;;;;;9.88;7.32;;;15.00;99.90;;;;;;4936744;29;20086;-64
2021/10/20 04:20:10;;;;;;;11.60;7.35;;;15.00;99.90;;;;;;4934743;29;20512;-64
2021/10/20 04:22:36;;;;;;;10.38;7.03;;;15.00;99.90;;;;;;4933883;29;20101;-64
2021/10/20 04:25:03;;;;;;;11.38;7.88;;;15.00;99.90;;;;;;4918388;29;20040;-64
2021/10/20 04:27:29;;;;;;;11.25;8.05;;;15.00;99.90;;;;;;4916666;29;20454;-65
2021/10/20 04:29:57;;;;;;;11.98;7.40;;;15.00;99.90;;;;;;4918690;29;20039;-64
2021/10/20 04:32:22;;;;;;;9.68;7.45;;;15.00;99.90;;;;;;4928395;29;20103;-65
2021/10/20 04:34:48;;;;;;;10.10;7.15;;;15.00;99.90;;;;;;4917771;29;20040;-65
2021/10/20 04:37:13;;;;;;;8.43;6.88;;;15.00;99.90;;;;;;4916463;29;20576;-65
2021/10/20 04:39:39;;;;;;;11.85;7.70;;;15.00;99.90;;;;;;4916697;29;20048;-65
2021/10/20 04:42:04;;;;;;;9.82;7.53;;;15.00;99.90;;;;;;4917497;29;20505;-64
2021/10/20 04:44:30;;;;;;;10.35;7.63;;;14.90;99.90;;;;;;4922176;29;20035;-64
2021/10/20 04:46:55;;;;;;;10.63;7.40;;;14.90;99.90;;;;;;4936172;29;20048;-64
2021/10/20 04:49:21;;;;;;;10.50;8.10;;;14.90;99.90;;;;;;4929350;29;20032;-64
2021/10/20 04:51:46;;;;;;;9.15;7.05;;;14.90;99.90;;;;;;4916987;29;20028;-64
2021/10/20 04:54:12;;;;;;;11.40;7.43;;;14.90;99.90;;;;;;4928317;29;20067;-64
2021/10/20 04:56:37;;;;;;;10.95;7.00;;;14.90;99.90;;;;;;4936479;29;20024;-63
2021/10/20 04:59:03;;;;;;;9.05;7.05;;;14.90;99.90;;;;;;4915538;29;20032;-63
2021/10/20 05:01:28;;;;;;;9.18;6.97;;;14.90;99.90;;;;;;4917044;29;20039;-63
2021/10/20 05:03:54;;;;;;;12.85;7.43;;;14.90;99.90;;;;;;4916593;29;20046;-63
2021/10/20 05:06:19;;;;;;;10.73;7.18;;;14.90;99.90;;;;;;4915857;29;20056;-64
2021/10/20 05:08:45;;;;;;;11.07;7.68;;;14.90;99.90;;;;;;4922772;29;20513;-62
2021/10/20 05:11:10;;;;;;;8.73;6.65;;;14.90;99.90;;;;;;4926806;29;20032;-62
2021/10/20 05:13:36;;;;;;;7.93;6.70;;;14.90;99.90;;;;;;4915827;29;20079;-62
2021/10/20 05:16:01;;;;;;;9.82;6.85;;;14.90;99.90;;;;;;4923852;29;20531;-62
2021/10/20 05:18:27;;;;;;;11.18;7.43;;;14.90;99.90;;;;;;4916034;29;20024;-62
2021/10/20 05:20:52;;;;;;;12.00;7.05;;;14.90;99.90;;;;;;4915525;29;20150;-62
2021/10/20 05:23:18;;;;;;;10.30;7.20;;;14.90;99.90;;;;;;4917972;29;20476;-63
2021/10/20 05:25:43;;;;;;;10.27;7.40;;;14.80;99.90;;;;;;4916634;29;20024;-64
2021/10/20 05:28:09;;;;;;;9.60;7.00;;;14.80;99.90;;;;;;4915798;29;20386;-64
2021/10/20 05:30:34;;;;;;;10.70;6.75;;;14.80;99.90;;;;;;4915841;29;20058;-63
2021/10/20 05:33:00;;;;;;;10.50;6.78;;;14.80;99.90;;;;;;4915548;29;20496;-64
2021/10/20 05:35:26;;;;;;;11.52;7.38;;;14.80;99.90;;;;;;4921927;29;20062;-64
2021/10/20 05:37:53;;;;;;;9.90;6.68;;;14.80;99.90;;;;;;4925767;29;20036;-64
2021/10/20 05:40:20;;;;;;;9.38;6.60;;;14.80;99.90;;;;;;4933271;29;20040;-64
2021/10/20 05:42:46;;;;;;;10.32;7.13;;;14.70;99.90;;;;;;4929838;29;20063;-64
2021/10/20 05:45:12;;;;;;;11.88;6.53;;;14.80;99.90;;;;;;4932167;29;20066;-64
2021/10/20 05:47:37;;;;;;;9.55;7.05;;;14.80;99.90;;;;;;4934108;29;20027;-65
2021/10/20 05:50:04;;;;;;;10.63;6.35;;;14.80;99.90;;;;;;4910382;29;20028;-65
2021/10/20 05:52:29;;;;;;;8.60;6.63;;;14.80;99.90;;;;;;4935358;29;20024;-65
2021/10/20 05:54:55;;;;;;;9.30;6.60;;;14.80;99.90;;;;;;4920313;29;20031;-65
2021/10/20 05:57:22;;;;;;;13.27;6.78;;;14.80;99.90;;;;;;4926153;29;20062;-65
2021/10/20 05:59:47;;;;;;;8.65;6.13;;;14.80;99.90;;;;;;4919308;29;20406;-65
2021/10/20 06:02:14;;;;;;;10.75;6.05;;;14.80;99.90;;;;;;4916013;29;20035;-65
2021/10/20 06:04:40;;;;;;;7.78;5.72;;;14.80;99.90;;;;;;4922989;29;20051;-65
2021/10/20 06:07:06;;;;;;;7.60;5.85;;;14.80;99.90;;;;;;4915514;29;20103;-65
2021/10/20 06:09:33;;;;;;;8.77;5.97;;;14.80;99.90;;;;;;4915192;29;20119;-65
2021/10/20 06:12:00;;;;;;;8.30;5.32;;;14.80;99.90;;;;;;4899377;29;20039;-65
2021/10/20 06:14:26;;;;;;;7.80;5.47;;;14.80;99.90;;;;;;4905000;29;20411;-65
2021/10/20 06:16:51;;;;;;;6.93;5.05;;;14.80;99.90;;;;;;4934850;29;20032;-65
2021/10/20 06:19:17;;;;;;;7.70;5.65;;;14.80;99.90;;;;;;4928610;29;20048;-65
2021/10/20 06:21:43;;;;;;;7.70;5.88;;;14.80;99.90;;;;;;4915105;29;20028;-65
2021/10/20 06:24:08;;;;;;;8.07;5.80;;;14.80;99.90;;;;;;4918224;29;20037;-65
2021/10/20 06:26:34;;;;;;;8.48;6.63;;;14.80;99.90;;;;;;4934597;29;20043;-65
2021/10/20 06:28:59;;;;;;;7.90;4.97;;;14.80;99.90;;;;;;4932785;29;20105;-65
2021/10/20 06:31:25;;;;;;;8.93;6.10;;;14.90;99.90;;;;;;4934094;29;20107;-65
2021/10/20 06:33:50;;;;;;;8.98;5.03;;;14.90;99.90;;;;;;4932702;29;20078;-65
2021/10/20 06:36:27;;;;;;;6.53;4.93;;;14.90;99.90;;;;;;4915466;29;20111;-65
2021/10/20 06:38:53;;;;;;;8.85;5.25;;;14.90;99.90;;;;;;4898026;29;20046;-65
2021/10/20 06:41:19;;;;;;;8.98;5.32;;;14.90;99.90;;;;;;4915938;29;20044;-65
2021/10/20 06:43:44;;;;;;;8.00;4.90;;;14.90;99.80;;;;;;4915149;29;20419;-65
2021/10/20 06:46:10;;;;;;;7.70;5.38;;;15.00;99.70;;;;;;4915453;29;20035;-64
2021/10/20 06:48:37;;;;;;;7.18;5.20;;;15.00;99.70;;;;;;4915810;29;20032;-65
2021/10/20 06:51:03;;;;;;;8.23;5.25;;;15.00;99.60;;;;;;4923880;29;20031;-65
2021/10/20 06:53:28;;;;;;;9.35;5.22;;;15.00;99.60;;;;;;4934257;29;20038;-65
2021/10/20 06:55:54;;;;;;;5.78;4.32;;;15.00;99.50;;;;;;4916031;29;20403;-64
2021/10/20 06:58:19;;;;;;;7.97;4.70;;;15.10;99.40;;;;;;4898392;29;20144;-64
2021/10/20 07:00:45;;;;;;;6.07;4.60;;;15.10;99.40;;;;;;4915155;29;20040;-64
2021/10/20 07:03:10;;;;;;;6.40;4.53;;;15.10;99.20;;;;;;4915409;29;20079;-65
2021/10/20 07:05:35;;;;;;;12.85;5.18;;;15.20;99.20;;;;;;4928716;29;20114;-65
2021/10/20 07:08:01;;;;;;;5.53;4.05;;;15.20;99.20;;;;;;4934011;29;20031;-65
2021/10/20 07:10:26;;;;;;;7.25;4.22;;;15.20;99.10;;;;;;4919767;29;20036;-64
2021/10/20 07:12:54;;;;;;;8.38;4.32;;;15.20;99.00;;;;;;4915443;29;20112;-64
2021/10/20 07:15:20;;;;;;;8.18;4.28;;;15.20;98.90;;;;;;4926679;29;20121;-64
2021/10/20 07:17:45;;;;;;;6.43;3.90;;;15.30;98.90;;;;;;4932022;29;20766;-64
2021/10/20 07:20:11;;;;;;;6.68;4.28;;;15.30;98.80;;;;;;4926331;29;20054;-64
2021/10/20 07:22:39;;;;;;;7.22;4.75;;;15.30;98.70;;;;;;4933913;29;20024;-65
2021/10/20 07:25:07;;;;;;;8.40;4.63;;;15.30;98.60;;;;;;4906008;29;20536;-64
2021/10/20 07:27:34;;;;;;;6.68;4.30;;;15.40;98.50;;;;;;4914801;29;20028;-65
2021/10/20 07:30:00;;;;;;;7.35;4.30;;;15.40;98.50;;;;;;4915138;29;20107;-65
2021/10/20 07:32:26;;;;;;;7.03;4.40;;;15.40;98.50;;;;;;4914535;29;20055;-65
2021/10/20 07:34:51;;;;;;;7.65;4.50;;;15.40;98.40;;;;;;4914472;29;20027;-64
2021/10/20 07:37:17;;;;;;;7.20;4.03;;;15.50;98.30;;;;;;4914805;29;20115;-64
2021/10/20 07:39:42;;;;;;;5.35;4.05;;;15.50;98.20;;;;;;4914362;29;20076;-65
2021/10/20 07:42:08;;;;;;;9.45;4.15;;;15.60;98.20;;;;;;4914822;29;20028;-64
2021/10/20 07:44:34;;;;;;;5.72;3.88;;;15.60;98.10;;;;;;4917482;29;20119;-64
2021/10/20 07:46:59;;;;;;;5.78;3.97;;;15.70;98.00;;;;;;4897619;29;20035;-64
2021/10/20 07:49:25;;;;;;;6.90;4.28;;;15.80;97.90;;;;;;4919245;29;20028;-64
2021/10/20 07:51:56;;;;;;;8.35;4.18;;;15.80;97.80;;;;;;4933807;29;20036;-64
2021/10/20 07:54:21;;;;;;;6.32;3.90;;;15.80;97.60;;;;;;4927456;29;20115;-65
2021/10/20 07:56:47;;;;;;;6.80;3.80;;;15.90;97.50;;;;;;4914511;29;20028;-65
2021/10/20 07:59:12;;;;;;;8.82;4.45;;;16.00;97.50;;;;;;4917420;29;20036;-65
2021/10/20 08:01:38;;;;;;;6.43;3.83;;;16.00;97.40;;;;;;4934642;29;20036;-65
2021/10/20 08:04:03;;;;;;;5.68;3.92;;;16.10;97.30;;;;;;4933145;29;20034;-65
2021/10/20 08:06:29;;;;;;;6.65;3.88;;;16.10;97.20;;;;;;4917871;29;20032;-65
2021/10/20 08:08:54;;;;;;;6.88;4.13;;;16.10;97.10;;;;;;4918249;29;20032;-64
2021/10/20 08:11:20;;;;;;;8.20;4.25;;;16.20;97.10;;;;;;4936843;29;20027;-65
2021/10/20 08:13:45;;;;;;;6.60;3.72;;;16.20;96.90;;;;;;4931857;29;20047;-65
2021/10/20 08:16:11;;;;;;;5.82;4.20;;;16.30;96.80;;;;;;4917430;29;20684;-64
2021/10/20 08:18:36;;;;;;;5.97;3.85;;;16.30;96.70;;;;;;4917424;29;20028;-65
2021/10/20 08:21:02;;;;;;;5.95;3.70;;;16.40;96.60;;;;;;4919091;29;20400;-65
2021/10/20 08:23:28;;;;;;;5.68;3.17;;;16.40;96.40;;;;;;4919323;29;20031;-65
2021/10/20 08:25:54;;;;;;;5.00;3.65;;;16.50;96.40;;;;;;4918146;29;20032;-65
2021/10/20 08:28:19;;;;;;;6.00;3.45;;;16.50;96.30;;;;;;4917348;29;20031;-65
2021/10/20 08:30:45;;;;;;;5.50;3.63;;;16.60;96.10;;;;;;4933090;29;20046;-65
2021/10/20 08:33:10;;;;;;;5.07;3.40;;;16.60;96.10;;;;;;4936171;29;20055;-65
2021/10/20 08:35:37;;;;;;;6.18;4.05;;;16.60;96.00;;;;;;4920525;29;20043;-65
2021/10/20 08:38:04;;;;;;;5.53;3.45;;;16.70;95.80;;;;;;4917400;29;20032;-65
2021/10/20 08:40:33;;;;;;;5.80;3.95;;;16.70;95.80;;;;;;4917722;29;20040;-65
2021/10/20 08:43:00;;;;;;;6.88;4.35;;;16.80;95.70;;;;;;4908242;29;20140;-65
2021/10/20 08:45:25;;;;;;;5.13;3.67;;;16.80;95.50;;;;;;4934192;29;20511;-65
2021/10/20 08:47:52;;;;;;;6.13;3.67;;;16.90;95.30;;;;;;4936518;29;20063;-65
2021/10/20 08:50:24;;;;;;;5.45;3.10;;;16.90;95.20;;;;;;4914866;29;20693;-65
2021/10/20 08:52:50;;;;;;;6.80;3.08;;;17.00;95.00;;;;;;4917137;29;20060;-65
2021/10/20 08:55:20;;;;;;;5.75;4.18;;;17.00;95.00;;;;;;4917078;29;20039;-65
2021/10/20 08:57:47;;;;;;;5.88;3.15;;;17.10;94.90;;;;;;4900379;29;20032;-65
2021/10/20 09:00:14;;;;;;;5.75;3.60;;;17.20;94.90;;;;;;4928361;29;20040;-65
2021/10/20 09:02:41;;;;;;;4.88;3.15;;;17.20;94.70;;;;;;4935889;29;20031;-65
2021/10/20 09:05:08;;;;;;;5.40;3.25;;;17.20;94.60;;;;;;4924197;29;20056;-64
2021/10/20 09:07:34;;;;;;;4.57;3.17;;;17.30;94.40;;;;;;4916440;29;20032;-64
2021/10/20 09:10:00;;;;;;;5.80;3.50;;;17.30;94.40;;;;;;4916899;29;20397;-64
2021/10/20 09:12:27;;;;;;;6.05;3.65;;;17.30;94.20;;;;;;4915477;29;20025;-64
2021/10/20 09:14:57;;;;;;;4.88;3.00;;;17.30;94.10;;;;;;4915819;29;20028;-64
2021/10/20 09:17:24;;;;;;;4.40;3.05;;;17.30;93.90;;;;;;4916653;29;20031;-65
2021/10/20 09:19:50;;;;;;;4.22;3.20;;;17.40;94.00;;;;;;4924057;29;20039;-64
2021/10/20 09:22:15;;;;;;;6.22;2.90;;;17.40;94.00;;;;;;4935524;29;20690;-65
2021/10/20 09:24:43;;;;;;;5.90;3.65;;;17.50;93.90;;;;;;4916448;29;20127;-64
2021/10/20 09:27:27;;;;;;;7.03;3.42;;;17.50;93.90;;;;;;4935255;29;20038;-64
2021/10/20 09:30:09;;;;;;;7.05;3.22;;;17.50;93.80;;;;;;4925860;29;20090;-64
2021/10/20 09:32:35;;;;;;;6.00;3.03;;;17.60;93.60;;;;;;4916511;29;20056;-65
2021/10/20 09:35:01;;;;;;;6.40;3.92;;;17.50;93.50;;;;;;4916499;29;20040;-64
2021/10/20 09:37:28;;;;;;;5.00;3.30;;;17.50;93.50;;;;;;4915970;29;20114;-64
2021/10/20 09:40:09;;;;;;;5.78;3.53;;;17.60;93.50;;;;;;4925744;29;20084;-65
2021/10/20 09:42:49;;;;;;;7.22;4.07;;;17.60;93.50;;;;;;4920315;29;20028;-65
2021/10/20 09:45:18;;;;;;;8.30;3.65;;;17.50;93.60;;;;;;4923100;29;20032;-65
2021/10/20 09:47:44;;;;;;;6.72;3.70;;;17.60;93.90;;;;;;4923876;29;20032;-64
2021/10/20 09:50:10;;;;;;;5.47;3.40;;;17.50;94.10;;;;;;4920187;29;20116;-65
2021/10/20 09:52:47;;;;;;;8.93;4.18;;;17.50;94.30;;;;;;4916168;29;20055;-64
2021/10/20 09:55:33;;;;;;;6.20;3.78;;;17.60;94.60;;;;;;4920245;29;20035;-66
2021/10/20 09:58:04;;;;;;;8.27;4.13;;;17.60;94.60;;;;;;4916890;29;20519;-65
2021/10/20 10:00:30;;;;;;;5.18;3.88;;;17.60;94.60;;;;;;4924607;29;20096;-65
2021/10/20 10:02:59;;;;;;;5.40;3.90;;;17.50;94.60;;;;;;4918623;29;20025;-65
2021/10/20 10:05:27;;;;;;;6.93;3.90;;;17.50;94.60;;;;;;4922662;29;20500;-64
2021/10/20 10:07:53;;;;;;;6.28;4.10;;;17.50;94.60;;;;;;4923453;29;20024;-64
2021/10/20 10:10:18;;;;;;;6.90;4.47;;;17.50;94.80;;;;;;4920713;29;20028;-64
2021/10/20 10:12:46;;;;;;;6.63;4.10;;;17.40;95.00;;;;;;4918648;29;20689;-64
2021/10/20 10:15:13;;;;;;;5.63;3.70;;;17.40;95.20;;;;;;4905726;29;20035;-64
2021/10/20 10:17:41;;;;;;;8.73;4.80;;;17.30;95.30;;;;;;4914295;29;20111;-64
2021/10/20 10:20:09;;;;;;;6.47;4.10;;;17.20;95.50;;;;;;4918301;29;20040;-65
2021/10/20 10:22:47;;;;;;;9.23;4.25;;;17.20;95.60;;;;;;4914249;29;20032;-64
2021/10/20 10:25:13;;;;;;;5.25;3.97;;;17.10;95.80;;;;;;4914796;29;20024;-65
2021/10/20 10:27:40;;;;;;;12.32;4.85;;;17.10;95.90;;;;;;4913672;29;20036;-65
2021/10/20 10:30:30;;;;;;;10.10;5.90;;;17.10;96.10;;;;;;4922068;29;20040;-65
2021/10/20 10:33:00;;;;;;;6.70;5.03;;;17.10;96.20;;;;;;4919014;29;20102;-65
2021/10/20 10:35:33;;;;;;;6.88;3.97;;;17.10;96.20;;;;;;4925446;29;20027;-65
2021/10/20 10:38:06;;;;;;;4.97;3.63;;;17.10;96.30;;;;;;4915087;29;20097;-65
2021/10/20 10:40:32;;;;;;;6.80;3.95;;;17.10;96.50;;;;;;4920080;29;20043;-65
2021/10/20 10:43:11;;;;;;;6.63;4.05;;;17.20;96.40;;;;;;4929014;29;20036;-66
2021/10/20 10:45:37;;;;;;;6.32;3.97;;;17.20;96.40;;;;;;4921983;29;20028;-67
2021/10/20 10:48:08;;;;;;;5.85;3.80;;;17.20;96.50;;;;;;4914388;29;20036;-66
2021/10/20 10:50:49;;;;;;;5.15;3.80;;;17.20;96.50;;;;;;4914380;29;20499;-66
2021/10/20 10:53:31;;;;;;;6.00;3.83;;;17.20;96.50;;;;;;4921763;29;20043;-66
2021/10/20 10:56:23;;;;;;;8.55;4.45;;;17.20;96.70;;;;;;4903585;29;20099;-66
2021/10/20 10:58:55;;;;;;;5.32;3.50;;;17.20;96.50;;;;;;4911096;29;20047;-66
2021/10/20 11:01:47;;;;;;;6.03;3.80;;;17.20;96.50;;;;;;4904040;29;20107;-67
2021/10/20 11:04:21;;;;;;;7.50;4.10;;;17.30;96.50;;;;;;4917718;29;20035;-68
2021/10/20 11:06:48;;;;;;;7.88;4.20;;;17.30;96.50;;;;;;4920938;29;20028;-66
2021/10/20 11:09:21;;;;;;;8.45;4.03;;;17.40;96.50;;;;;;4913670;29;20036;-66
2021/10/20 11:11:49;;;;;;;7.35;4.55;;;17.40;96.40;;;;;;4911915;29;20036;-67
2021/10/20 11:14:16;;;;;;;6.40;4.18;;;17.40;96.30;;;;;;4914244;29;20164;-66
2021/10/20 11:16:45;;;;;;;5.70;4.20;;;17.40;96.40;;;;;;4915920;29;20044;-66
2021/10/20 11:19:12;;;;;;;6.65;4.15;;;17.50;96.20;;;;;;4914327;29;20366;-66
2021/10/20 11:21:37;;;;;;;7.35;4.75;;;17.40;96.20;;;;;;4915999;29;20036;-66
2021/10/20 11:24:06;;;;;;;7.03;4.60;;;17.40;96.30;;;;;;4919105;29;20147;-66
2021/10/20 11:26:32;;;;;;;5.10;3.92;;;17.40;96.30;;;;;;4921222;29;20039;-66
2021/10/20 11:29:08;;;;;;;7.05;4.40;;;17.50;96.40;;;;;;4915300;29;20023;-66
2021/10/20 11:31:39;;;;;;;7.40;4.38;;;17.50;96.40;;;;;;4921800;29;20048;-66
2021/10/20 11:34:26;;;;;;;5.80;3.92;;;17.50;96.20;;;;;;4921865;29;20111;-66
2021/10/20 11:36:52;;;;;;;7.28;4.50;;;17.50;96.20;;;;;;4919068;29;20036;-67
2021/10/20 11:39:18;;;;;;;7.32;4.03;;;17.50;96.20;;;;;;4919356;29;20417;-66
2021/10/20 11:41:55;;;;;;;7.22;3.90;;;17.50;96.10;;;;;;4917898;29;20042;-67
2021/10/20 11:44:28;;;;;;;7.20;3.88;;;17.50;96.10;;;;;;4922598;29;20075;-66
2021/10/20 11:46:58;;;;;;;5.90;4.45;;;17.60;96.10;;;;;;4918422;29;20127;-67
2021/10/20 11:49:25;;;;;;;6.80;4.13;;;17.60;96.10;;;;;;4924171;29;20062;-67
2021/10/20 11:51:51;;;;;;;6.72;3.85;;;17.60;96.10;;;;;;4917239;29;20035;-66
2021/10/20 11:54:18;;;;;;;6.18;4.40;;;17.60;95.90;;;;;;4921167;29;20040;-67
2021/10/20 11:56:58;;;;;;;9.45;4.53;;;17.70;96.00;;;;;;4924507;29;20370;-67
2021/10/20 11:59:28;;;;;;;7.38;4.00;;;17.70;96.00;;;;;;4926826;29;20042;-67
2021/10/20 12:01:55;;;;;;;7.20;3.80;;;17.70;96.10;;;;;;4926097;29;20040;-67
2021/10/20 12:04:23;;;;;;;7.82;4.68;;;17.70;95.90;;;;;;4917791;29;20032;-67
2021/10/20 12:06:54;;;;;;;5.82;3.92;;;17.70;95.90;;;;;;4917521;29;20096;-66
2021/10/20 12:09:23;;;;;;;4.93;3.80;;;17.80;95.80;;;;;;4922912;29;20036;-66
2021/10/20 12:11:50;;;;;;;6.28;3.72;;;17.80;95.80;;;;;;4916604;29;20055;-67
2021/10/20 12:14:17;;;;;;;5.05;3.85;;;17.90;95.80;;;;;;4916805;29;20047;-67
2021/10/20 12:16:43;;;;;;;6.07;3.30;;;17.90;95.50;;;;;;4899229;29;20111;-67
2021/10/20 12:19:10;;;;;;;5.05;3.08;;;17.90;95.40;;;;;;4927128;29;20078;-67
2021/10/20 12:21:39;;;;;;;6.72;3.63;;;17.90;95.30;;;;;;4926909;29;20036;-66
2021/10/20 12:24:05;;;;;;;5.22;3.50;;;18.00;95.20;;;;;;4917086;29;20103;-67
2021/10/20 12:26:32;;;;;;;9.10;3.72;;;18.00;95.10;;;;;;4916745;29;20043;-67
2021/10/20 12:29:07;;;;;;;4.95;3.60;;;18.10;95.10;;;;;;4927851;29;20037;-66
2021/10/20 12:31:34;;;;;;;4.78;3.33;;;18.10;94.90;;;;;;4922677;29;20079;-67
2021/10/20 12:34:00;;;;;;;6.45;3.85;;;18.20;94.90;;;;;;4918056;29;20501;-67
2021/10/20 12:36:29;;;;;;;8.85;3.70;;;18.30;94.70;;;;;;4926743;29;20047;-67
2021/10/20 12:38:57;;;;;;;6.95;3.50;;;18.40;94.70;;;;;;4919985;29;20127;-67
2021/10/20 12:41:28;;;;;;;6.13;3.05;;;18.50;94.60;;;;;;4926255;29;20576;-67
2021/10/20 12:43:56;;;;;;;6.32;3.50;;;18.60;94.60;;;;;;4922555;29;20042;-67